Back to top

Evanston, WY weather

Evanston-Unita County Airport/Burns Field, Evanston, WY: 7/22/2019 13:53
Visibility10 statute milesclear sky
View 7-Day Forecast
Area Summary
Sky/CloudsSky Clear
Weather [last 24 hours]None
Pressure30.36 in.Hg (1028 hPa)
Dew Point37.9 °F (3.3 °C)
Relative Humidity19.5 %
Temperature84 °F (28.9 °C)red thermometer
Reading TimeMinimum to Maximum Temperature
6-hr ending 7/22@11:5357.9 °F to 78.1 °F (14.4 °C to 25.6 °C)
6-hr ending 7/22@05:5357 °F to 66.9 °F (13.9 °C to 19.4 °C)
6-hr ending 7/21@23:5364.9 °F to 80.1 °F (18.3 °C to 26.7 °C)
6-hr ending 7/21@17:5379 °F to 88 °F (26.1 °C to 31.1 °C)
24-hr ending 7/22@00:5354 °F to 88 °F (12.2 °C to 31.1 °C)
Wind0 MPH (0 KT) green arrow pointing at 0 degrees
Wind FromNorth (000 Degrees)
Rolling 24-hr Peak Wind29.9 MPH (26 KT) on 7/21@22:03
Rolling 24-hr Peak Wind FromSouth (170 Degrees)
Twilight Begins05:37Sunshine Yesterday
Sunrise06:09N/A
Sunset20:52
Twilight Ends21:24
METARKEVW 221953Z AUTO 00000KT 10SM CLR 29/03 A3036 RMK AO2 SLP167 T02890033
Tags: